»·PEaware :: DAL985 KLAS-KSAN

DAL985 :: KLAS-KSAN

FLIGHT INFORMATION

Flight Status: Arrived
Operator:
Delta Air Lines
More flights by this operator :: More flights under this callsign
Pilot: Jake M. (20491)
Aircraft: AIRBUS A320
(A320)
More flights by this aircraft type
Origin: KLAS McCarran Intl
United States
Destination: KSAN San Diego Intl-Lindbergh
United States
More flights between these airports :: More routes between these airports
Route: +BOACH8 LVELL LUCKI1
File this flight plan on PilotEdge
Remarks: PBN / A1B1C1D1O1S1 DOF / 180928 REG / N320SB OPR / DAL PER / C RMK / TCAS SIMBRIEF
Altitude:
(Current/Filed)
32,000ft
Speed:
(Current/Filed)
426kts
Departed: 27-Sep-18 10:23 PM
Arrived: 27-Sep-18 11:05 PM
Distance/Time
Traveled:
225nm/0:42
Distance/Time
To Go:
Arrived

Flight Plot

Page will automatically refresh every two minutes.

Flight plan parsing failed; only flown route is shown


Map Options




Map Legend


Flown Route
Filed Route
Departure Airport
Arrival Airport
Navaid (VOR, NDB)
Fix

Horizontal Profiles

Position Reports

Time Latitude Longitude Heading Altitude Ground
Speed
27-Sep-18 22:04 36.084813 -115.152239 41 2105ft 0kts
27-Sep-18 22:05 36.084813 -115.152239 41 2105ft 0kts
27-Sep-18 22:06 36.084813 -115.152239 41 2105ft 0kts
27-Sep-18 22:07 36.084813 -115.152239 41 2105ft 0kts
27-Sep-18 22:08 36.084813 -115.152239 41 2105ft 0kts
27-Sep-18 22:09 36.084813 -115.152239 41 2105ft 0kts
27-Sep-18 22:10 36.084813 -115.152239 41 2105ft 0kts
27-Sep-18 22:11 36.084812 -115.152239 41 2105ft 0kts
27-Sep-18 22:12 36.084583 -115.152493 41 2107ft 2kts
27-Sep-18 22:13 36.084265 -115.152843 41 2110ft 1kts
27-Sep-18 22:14 36.084147 -115.152807 257 2110ft 0kts
27-Sep-18 22:15 36.084158 -115.152739 264 2109ft 0kts
27-Sep-18 22:16 36.084140 -115.152948 262 2110ft 4kts
27-Sep-18 22:17 36.083891 -115.154033 248 2114ft 0kts
27-Sep-18 22:18 36.083890 -115.154037 248 2114ft 0kts
27-Sep-18 22:19 36.083888 -115.154042 249 2114ft 0kts
27-Sep-18 22:20 36.081341 -115.154815 156 2123ft 20kts
27-Sep-18 22:21 36.077920 -115.149258 94 2110ft 29kts
27-Sep-18 22:22 36.077526 -115.137545 90 2075ft 34kts
27-Sep-18 22:23 36.077545 -115.127571 90 2047ft 36kts
27-Sep-18 22:24 36.077206 -115.121259 152 2038ft 12kts
27-Sep-18 22:25 36.076375 -115.136292 269 2081ft 162kts
27-Sep-18 22:26 36.076160 -115.196442 269 5697ft 192kts
27-Sep-18 22:27 36.052136 -115.264827 204 6997ft 280kts
27-Sep-18 22:28 35.978327 -115.298737 200 7038ft 288kts
27-Sep-18 22:29 35.899338 -115.310224 187 9109ft 294kts
27-Sep-18 22:30 35.814968 -115.310459 176 11577ft 346kts
27-Sep-18 22:31 35.709508 -115.298444 176 12722ft 410kts
27-Sep-18 22:32 35.593614 -115.298137 183 14927ft 423kts
27-Sep-18 22:33 35.474885 -115.302771 184 16943ft 434kts
27-Sep-18 22:34 35.354888 -115.307504 184 18660ft 443kts
27-Sep-18 22:35 35.230946 -115.312378 184 18810ft 449kts
27-Sep-18 22:36 35.105802 -115.317278 184 18813ft 450kts
27-Sep-18 22:37 34.979758 -115.322235 184 19898ft 462kts
27-Sep-18 22:38 34.853961 -115.327131 184 21524ft 466kts
27-Sep-18 22:39 34.726907 -115.354551 202 22828ft 469kts
27-Sep-18 22:40 34.603768 -115.408557 202 24018ft 476kts
27-Sep-18 22:41 34.478813 -115.463058 202 25126ft 482kts
27-Sep-18 22:42 34.352527 -115.517987 202 26231ft 484kts
27-Sep-18 22:43 34.236254 -115.595731 213 27506ft 478kts
27-Sep-18 22:44 34.117408 -115.659268 203 27997ft 483kts
27-Sep-18 22:45 33.993114 -115.718430 203 28001ft 479kts
27-Sep-18 22:46 33.872298 -115.775806 203 26105ft 481kts
27-Sep-18 22:47 33.747689 -115.834839 203 23912ft 484kts
27-Sep-18 22:48 33.623332 -115.893519 203 23835ft 484kts
27-Sep-18 22:49 33.506732 -115.968067 225 23471ft 469kts
27-Sep-18 22:50 33.431108 -116.089244 237 20640ft 449kts
27-Sep-18 22:51 33.361827 -116.208242 236 17817ft 434kts
27-Sep-18 22:52 33.266920 -116.291693 208 14819ft 429kts
27-Sep-18 22:53 33.166409 -116.350242 208 12189ft 412kts
27-Sep-18 22:54 33.073041 -116.404736 207 10716ft 369kts
27-Sep-18 22:55 32.999108 -116.472868 229 9960ft 317kts
27-Sep-18 22:56 32.943222 -116.546619 229 9983ft 295kts
27-Sep-18 22:57 32.890401 -116.615984 228 9081ft 282kts
27-Sep-18 22:58 32.839680 -116.684196 227 9011ft 288kts
27-Sep-18 22:59 32.786307 -116.753838 227 7695ft 288kts
27-Sep-18 23:00 32.733549 -116.821824 228 6380ft 276kts
27-Sep-18 23:01 32.687808 -116.882457 245 5669ft 235kts
27-Sep-18 23:02 32.675693 -116.951571 287 5023ft 203kts
27-Sep-18 23:03 32.690009 -117.010382 286 5018ft 176kts
27-Sep-18 23:04 32.703844 -117.071014 285 3668ft 219kts
27-Sep-18 23:05 32.722101 -117.143173 288 702ft 224kts
27-Sep-18 23:06 32.736452 -117.201728 286 19ft 76kts
27-Sep-18 23:07 32.735602 -117.202359 106 19ft 18kts
27-Sep-18 23:08 32.733805 -117.199025 148 19ft 6kts
27-Sep-18 23:09 32.733712 -117.198956 149 19ft 0kts

Navigation Log

Ident Type
Flight plan parsing failed, navigation log unavailable